Record high temperature 100.8°F Record low temperature -75.5°F Record high gust 121.0 mph Record high average 61.8 mph Record daily rain 2.61 in. Record low windchill -106.6°F Record high barometer 31.889 in. Record low barometer 23.642 in.
Daily high pressure 30.147 in. Daily low pressure 29.956 in. Daily low windchill 15.5°F Daily high heat index 35.8°F Daily high gust speed 14.7 mph NW Daily high average speed 7.8 mph NW
Weather Data
LAST READING AT TIME: 15:40 PM DATE: February 01 2015, time of next update: 03:50 pm
Current WeatherDry Current Temperature 30.6°F (-0.8°C), Apparent temp 25.4°F
Maximum Temperature (since midnight)35.8°F at: 12:02 PM Minimum Temperature (since midnight)21.2°F at: 7:16 AM
Average windspeed (ten minute)2.2 mph Wind Direction (ten minute)S (179°)
Windchill Temperature 27.9°F Maximum Gust (last hour)7.4 mph at: 2:40 PM
Maximum Gust (since midnight)14.7 mph at: 2:34 AM Maximum 1 minute average (since midnight)7.8 mph at: 1:13 AM
Rainfall (last hour)0.00 in. (0.0 mm) Rainfall (since midnight)0.00 in. (0.0 mm) ---
Rainfall This month 0.00 in. (0.0 mm) Rainfall To date this year 0.76 in. (19.3 mm)
Maximum rain per minute (last hour)0.00 in/min Maximum rain per hour (last 6 hours)0.00 in/hour
Yesterdays rainfall 0.05 in DewPoint 18.7°F (Wet Bulb :27.0°F )
Humidity 61 %, Humidex 24.1°F Barometer corrected to msl30.126 in. (1020.2 hPa)
Pressure change +0.01 in. (last hour) Trend (last hour)STEADY
Pressure change (last 12 hours)+0.10 in Pressure change (last 6 hours)+0.00 in

This page is updated from recent data collected by a DAVIS WMII weather station Use the Reload or Refresh facility on your browser to retrieve the latest data.


Click here for the last 24 hour graph
Click here for the last 48 hour graph
Click here for the last 72 hour graph
Click here for the month to date graph


Weather report/warning/Metars

COLORADO SPRINGS MUNI, CO, United States (KCOS) 38-49N 104-43W 1856M
Feb 01, 2015 - 04:54 PM EST / 2015.02.01 2154 UTC
Wind: from the S (170 degrees) at 7 MPH (6 KT):0
Visibility: 10 mile(s):0
Sky conditions: mostly cloudy
Temperature: 28.9 F (-1.7 C)
Windchill: 21 F (-6 C):1
Dew Point: 18.0 F (-7.8 C)
Relative Humidity: 63%
Pressure (altimeter): 30.1 in. Hg (1019 hPa)
ob: KCOS 012154Z 17006KT 10SM FEW026 BKN032 M02/M08 A3010 RMK AO2 SLP231 T10171078
cycle: 22
Air Force Academy, CO, United States (KAFF) 38-58N 104-49W 1999M
Feb 01, 2015 - 04:58 PM EST / 2015.02.01 2158 UTC
Wind: Variable at 6 MPH (5 KT):0
Visibility: 10 mile(s):0
Sky conditions: overcast
Temperature: 27.9 F (-2.3 C)
Windchill: 21 F (-6 C):1
Dew Point: 15.3 F (-9.3 C)
Relative Humidity: 58%
Pressure (altimeter): 30.08 in. Hg (1018 hPa)
ob: KAFF 012158Z AUTO VRB05KT 10SM OVC031 M02/M09 A3008 RMK AO2 SLP225 T10231093
cycle: 22
Fort Carson, CO, United States (KFCS) 38-42N 104-46W 1789M
Feb 01, 2015 - 04:58 PM EST / 2015.02.01 2158 UTC
Wind: from the SE (130 degrees) at 8 MPH (7 KT):0
Visibility: 10 mile(s):0
Sky conditions: overcast
Temperature: 30.7 F (-0.7 C)
Windchill: 23 F (-5 C):1
Dew Point: 20.1 F (-6.6 C)
Relative Humidity: 64%
Pressure (altimeter): 30.09 in. Hg (1018 hPa)
ob: KFCS 012158Z AUTO 13007KT 10SM BKN029 OVC036 M01/M07 A3009 RMK AO2 SLP242 T10071066
cycle: 22



The data is logged at two minute intervals, but there is data recorded every minute. Best viewed in 800 x 600 and True colour.

Use the RELOAD facility on your browser to retrieve the latest data.

Click here for a daily update of the averages/extremes to date for the month
Created by "Weather Display" software version 10.37R Build 78 at this start time/date 03:23 am 1/14/2015